createdAt,value
2022-11-23T07:27:17.905Z,448.00
2022-11-23T07:28:17.866Z,480.00
2022-11-23T07:29:17.841Z,508.00
2022-11-23T07:30:17.836Z,544.00
2022-11-23T07:31:17.814Z,580.00
2022-11-23T07:32:17.816Z,628.00
2022-11-23T07:33:17.811Z,676.00
2022-11-23T07:34:17.791Z,716.00
2022-11-23T07:35:17.767Z,788.00
2022-11-23T07:36:17.763Z,1080.00
2022-11-23T07:37:17.747Z,1252.00
2022-11-23T07:38:17.764Z,1400.00
2022-11-23T07:39:17.730Z,1556.00
2022-11-23T07:40:17.721Z,1680.00
2022-11-23T07:41:17.713Z,1756.00
2022-11-23T07:42:32.742Z,1772.00
2022-11-23T07:43:18.726Z,1412.00
2022-11-23T07:44:17.681Z,1116.00
2022-11-23T07:45:17.678Z,840.00
2022-11-23T07:46:17.657Z,764.00
2022-11-23T07:47:17.642Z,700.00
2022-11-23T07:48:17.632Z,644.00
2022-11-23T07:49:17.629Z,624.00
2022-11-23T07:50:17.611Z,628.00
2022-11-23T07:51:17.597Z,624.00
2022-11-23T07:52:17.589Z,632.00
2022-11-23T07:53:17.673Z,628.00
2022-11-23T07:54:23.303Z,616.00
2022-11-23T07:55:18.553Z,624.00
2022-11-23T07:56:17.543Z,652.00
2022-11-23T07:57:17.530Z,656.00
2022-11-23T07:58:17.514Z,668.00
2022-11-23T07:59:17.522Z,744.00
2022-11-23T08:00:17.523Z,688.00
2022-11-23T08:01:17.495Z,716.00
2022-11-23T08:02:17.515Z,736.00
2022-11-23T08:03:27.698Z,732.00
2022-11-23T08:04:18.474Z,740.00
2022-11-23T08:05:17.450Z,760.00
2022-11-23T08:06:17.461Z,780.00
2022-11-23T08:07:17.459Z,796.00
2022-11-23T08:08:17.414Z,800.00
2022-11-23T08:09:17.401Z,816.00
2022-11-23T08:10:17.393Z,836.00
2022-11-23T08:11:17.392Z,920.00
2022-11-23T08:12:17.365Z,988.00
2022-11-23T08:13:17.354Z,1004.00
2022-11-23T08:14:17.367Z,1008.00
2022-11-23T08:15:18.019Z,1008.00
2022-11-23T08:16:17.339Z,1000.00
2022-11-23T08:17:17.296Z,1020.00
2022-11-23T08:18:17.349Z,1020.00
2022-11-23T08:19:17.285Z,1032.00
2022-11-23T08:20:17.267Z,1036.00
2022-11-23T08:21:17.263Z,1052.00
2022-11-23T08:22:17.258Z,1064.00
2022-11-23T08:23:17.246Z,1076.00
2022-11-23T08:24:17.232Z,1084.00
2022-11-23T08:25:17.203Z,1092.00
2022-11-23T08:26:17.211Z,1096.00
2022-11-23T08:27:17.214Z,1104.00
2022-11-23T08:28:17.173Z,1104.00
2022-11-23T08:29:17.246Z,1108.00
2022-11-23T08:30:17.166Z,1116.00
2022-11-23T08:31:17.156Z,1116.00
2022-11-23T08:32:17.153Z,1120.00
2022-11-23T08:33:17.113Z,1124.00
2022-11-23T08:34:17.120Z,1132.00
2022-11-23T08:35:17.103Z,1144.00
2022-11-23T08:36:17.083Z,1156.00
2022-11-23T08:37:17.067Z,1164.00
2022-11-23T08:38:17.074Z,1168.00
2022-11-23T08:39:17.045Z,1116.00
2022-11-23T08:40:22.108Z,1156.00
2022-11-23T08:41:18.032Z,1172.00
2022-11-23T08:42:17.028Z,1172.00
2022-11-23T08:43:17.035Z,1192.00
2022-11-23T08:44:16.994Z,1196.00
2022-11-23T08:45:16.982Z,1196.00
2022-11-23T08:46:16.975Z,1196.00
2022-11-23T08:47:16.993Z,1204.00
2022-11-23T08:48:17.080Z,1208.00
2022-11-23T08:49:16.934Z,1220.00
2022-11-23T08:50:16.925Z,1232.00
2022-11-23T08:51:16.908Z,1240.00
2022-11-23T08:52:16.916Z,1244.00
2022-11-23T08:53:16.894Z,1252.00
2022-11-23T08:54:16.904Z,1260.00
2022-11-23T08:55:16.868Z,1276.00
2022-11-23T08:56:16.881Z,1284.00
2022-11-23T08:57:16.845Z,1300.00
2022-11-23T08:58:16.849Z,1312.00
2022-11-23T08:59:16.852Z,1304.00
2022-11-23T09:00:16.824Z,1316.00
2022-11-23T09:01:16.910Z,1332.00
2022-11-23T09:02:16.806Z,1336.00
2022-11-23T09:03:16.792Z,1352.00
2022-11-23T09:04:20.620Z,1512.00
2022-11-23T09:05:16.768Z,1376.00
2022-11-23T09:06:16.742Z,1312.00
2022-11-23T09:07:16.836Z,1304.00
2022-11-23T09:08:16.718Z,1348.00
2022-11-23T09:09:16.716Z,1368.00
2022-11-23T09:10:18.966Z,1284.00
2022-11-23T09:11:16.696Z,1400.00
2022-11-23T09:12:16.672Z,1608.00
2022-11-23T09:13:16.665Z,1660.00
2022-11-23T09:14:16.650Z,2204.00
2022-11-23T09:15:16.656Z,2420.00
2022-11-23T09:16:16.632Z,1760.00
2022-11-23T09:17:16.614Z,1872.00
2022-11-23T09:18:16.618Z,1852.00
2022-11-23T09:19:16.611Z,2216.00
2022-11-23T09:20:16.601Z,2004.00
2022-11-23T09:21:16.586Z,1964.00
2022-11-23T09:22:16.575Z,2112.00
2022-11-23T09:23:16.558Z,2360.00
2022-11-23T09:24:16.606Z,1252.00
2022-11-23T09:25:16.546Z,1216.00
2022-11-23T09:26:16.517Z,1332.00
2022-11-23T09:27:16.498Z,1900.00
2022-11-23T09:28:16.493Z,1616.00
2022-11-23T09:29:16.475Z,1752.00
2022-11-23T09:30:16.467Z,1928.00
2022-11-23T09:31:16.466Z,1696.00
2022-11-23T09:32:16.468Z,2052.00
2022-11-23T09:33:16.443Z,1860.00
2022-11-23T09:34:16.424Z,2252.00
2022-11-23T09:35:16.476Z,2460.00
2022-11-23T09:36:16.417Z,2392.00
2022-11-23T09:37:16.389Z,2068.00
2022-11-23T09:38:16.382Z,2456.00
2022-11-23T09:39:16.364Z,2784.00
2022-11-23T09:40:16.359Z,2148.00
2022-11-23T09:41:16.356Z,2144.00
2022-11-23T09:42:16.347Z,1948.00
2022-11-23T09:43:16.330Z,1804.00
2022-11-23T09:44:17.043Z,2048.00
2022-11-23T09:45:16.294Z,2100.00
2022-11-23T09:46:16.300Z,3052.00
2022-11-23T09:47:16.305Z,3048.00
2022-11-23T09:48:16.276Z,2560.00
2022-11-23T09:49:16.254Z,1700.00
2022-11-23T09:50:16.239Z,1484.00
2022-11-23T09:51:16.274Z,1772.00
2022-11-23T09:52:16.300Z,1904.00
2022-11-23T09:53:16.227Z,1760.00
2022-11-23T09:54:16.195Z,1584.00
2022-11-23T09:55:16.191Z,1448.00
2022-11-23T09:56:16.184Z,1376.00
2022-11-23T09:57:16.169Z,1472.00
2022-11-23T09:58:16.161Z,1372.00
2022-11-23T09:59:16.146Z,1420.00
2022-11-23T10:00:16.125Z,1304.00
2022-11-23T10:01:16.205Z,1256.00
2022-11-23T10:02:16.114Z,1348.00
2022-11-23T10:03:16.114Z,1372.00
2022-11-23T10:04:16.082Z,1288.00
2022-11-23T10:05:16.077Z,1316.00
2022-11-23T10:06:16.071Z,1584.00
2022-11-23T10:07:16.106Z,1320.00
2022-11-23T10:08:16.063Z,1396.00
2022-11-23T10:09:16.051Z,1564.00
2022-11-23T10:10:16.027Z,1672.00
2022-11-23T10:11:16.011Z,1724.00
2022-11-23T10:12:15.990Z,1588.00
2022-11-23T10:13:15.974Z,1548.00
2022-11-23T10:14:15.978Z,1660.00
2022-11-23T10:15:15.963Z,1656.00
2022-11-23T10:16:15.960Z,1656.00
2022-11-23T10:17:15.941Z,1684.00
2022-11-23T10:18:16.536Z,1688.00
2022-11-23T10:19:15.930Z,1480.00
2022-11-23T10:20:15.910Z,1332.00
2022-11-23T10:21:15.899Z,1280.00
2022-11-23T10:22:15.875Z,1528.00
2022-11-23T10:23:15.893Z,1768.00
2022-11-23T10:24:15.879Z,1912.00
2022-11-23T10:25:15.852Z,2248.00
2022-11-23T10:26:15.841Z,2336.00
2022-11-23T10:27:15.817Z,2360.00
2022-11-23T10:28:15.810Z,2256.00
2022-11-23T10:29:15.824Z,2536.00
2022-11-23T10:30:15.800Z,2576.00
2022-11-23T10:31:15.849Z,3128.00
2022-11-23T10:32:15.807Z,3732.00
2022-11-23T10:33:15.749Z,2780.00
2022-11-23T10:34:15.802Z,2540.00
2022-11-23T10:35:15.728Z,2624.00
2022-11-23T10:36:15.730Z,2440.00
2022-11-23T10:37:15.700Z,2292.00
2022-11-23T10:38:19.050Z,2452.00
2022-11-23T10:39:15.719Z,2824.00
2022-11-23T10:40:15.681Z,2912.00
2022-11-23T10:41:15.695Z,2896.00
2022-11-23T10:42:15.663Z,3064.00
2022-11-23T10:43:15.644Z,3220.00
2022-11-23T10:44:15.645Z,3656.00
2022-11-23T10:45:15.632Z,3272.00
2022-11-23T10:46:15.615Z,9436.00
2022-11-23T10:47:15.587Z,8856.00
2022-11-23T10:48:15.580Z,9376.00
2022-11-23T10:49:15.565Z,8572.00
2022-11-23T10:50:15.583Z,7712.00
2022-11-23T10:51:15.554Z,7644.00
2022-11-23T10:52:15.571Z,3600.00
2022-11-23T10:53:15.517Z,7516.00
2022-11-23T10:54:15.596Z,4712.00
2022-11-23T10:55:15.547Z,7716.00
2022-11-23T10:56:15.502Z,6292.00
2022-11-23T10:57:15.473Z,3400.00
2022-11-23T10:58:15.463Z,7528.00
2022-11-23T10:59:15.457Z,7380.00
2022-11-23T11:00:15.468Z,7304.00
2022-11-23T11:01:15.567Z,7276.00
2022-11-23T11:02:15.436Z,5956.00
2022-11-23T11:03:15.417Z,5988.00
2022-11-23T11:04:15.412Z,6140.00
2022-11-23T11:05:15.412Z,6024.00
2022-11-23T11:06:15.393Z,2160.00
2022-11-23T11:07:15.548Z,4928.00
2022-11-23T11:08:15.350Z,3232.00
2022-11-23T11:09:15.351Z,3284.00
2022-11-23T11:10:15.483Z,6416.00
2022-11-23T11:11:15.362Z,7104.00
2022-11-23T11:12:15.314Z,7972.00
2022-11-23T11:13:15.296Z,8080.00
2022-11-23T11:14:15.291Z,6524.00
2022-11-23T11:15:15.303Z,7820.00
2022-11-23T11:16:15.257Z,7344.00
2022-11-23T11:17:15.262Z,7304.00
2022-11-23T11:18:15.264Z,7412.00
2022-11-23T11:19:15.245Z,7520.00
2022-11-23T11:20:15.257Z,5652.00
2022-11-23T11:21:15.205Z,3216.00
2022-11-23T11:22:15.203Z,5556.00
2022-11-23T11:23:15.214Z,8728.00
2022-11-23T11:24:15.179Z,8448.00
2022-11-23T11:25:15.184Z,7568.00
2022-11-23T11:26:15.157Z,8092.00
2022-11-23T11:27:15.159Z,3272.00
2022-11-23T11:28:15.134Z,2640.00
2022-11-23T11:29:15.128Z,2532.00
2022-11-23T11:30:15.111Z,2372.00
2022-11-23T11:31:15.105Z,2908.00
2022-11-23T11:32:15.072Z,2428.00
2022-11-23T11:33:15.081Z,2024.00
2022-11-23T11:34:15.055Z,2040.00
2022-11-23T11:35:20.572Z,1944.00
2022-11-23T11:36:16.029Z,2160.00
2022-11-23T11:37:15.036Z,2152.00
2022-11-23T11:38:15.018Z,2128.00
2022-11-23T11:39:18.959Z,4444.00
2022-11-23T11:40:15.050Z,3252.00
2022-11-23T11:41:14.992Z,2844.00
2022-11-23T11:42:14.978Z,3056.00
2022-11-23T11:43:14.988Z,3308.00
2022-11-23T11:44:14.951Z,6300.00
2022-11-23T11:45:14.929Z,2408.00
2022-11-23T11:46:28.996Z,2308.00
2022-11-23T11:47:15.919Z,2404.00
2022-11-23T11:48:14.891Z,2276.00
2022-11-23T11:49:14.889Z,2100.00
2022-11-23T11:50:14.887Z,1956.00
2022-11-23T11:51:14.909Z,2096.00
2022-11-23T11:52:14.860Z,2116.00
2022-11-23T11:53:14.864Z,1936.00
2022-11-23T11:54:14.840Z,2032.00
2022-11-23T11:55:14.858Z,2276.00
2022-11-23T11:56:14.812Z,2080.00
2022-11-23T11:57:14.806Z,2244.00
2022-11-23T11:58:14.823Z,2120.00
2022-11-23T11:59:14.857Z,1848.00
2022-11-23T12:00:14.767Z,2252.00
2022-11-23T12:01:14.815Z,2268.00
2022-11-23T12:02:14.762Z,2236.00
2022-11-23T12:03:14.752Z,1812.00
2022-11-23T12:04:14.708Z,1928.00
2022-11-23T12:05:14.722Z,2792.00
2022-11-23T12:06:14.710Z,1852.00
2022-11-23T12:07:14.721Z,1844.00
2022-11-23T12:08:14.676Z,1736.00
2022-11-23T12:09:14.664Z,1844.00
2022-11-23T12:10:14.654Z,1960.00
2022-11-23T12:11:14.654Z,2292.00
2022-11-23T12:12:14.617Z,2212.00
2022-11-23T12:13:14.618Z,2444.00
2022-11-23T12:14:14.617Z,2624.00
2022-11-23T12:15:40.975Z,2776.00
2022-11-23T12:16:15.587Z,3612.00
2022-11-23T12:17:32.323Z,3404.00
2022-11-23T12:18:15.547Z,5788.00
2022-11-23T12:19:14.555Z,3512.00
2022-11-23T12:20:14.544Z,2784.00
2022-11-23T12:21:14.578Z,2548.00
2022-11-23T12:22:14.615Z,3136.00
2022-11-23T12:23:14.498Z,3600.00
2022-11-23T12:24:14.484Z,6060.00
2022-11-23T12:25:14.502Z,3792.00
2022-11-23T12:26:14.475Z,6464.00
2022-11-23T12:27:14.489Z,2228.00
2022-11-23T12:28:14.455Z,2864.00
2022-11-23T12:29:14.431Z,2988.00
2022-11-23T12:30:14.433Z,1796.00
2022-11-23T12:31:14.455Z,1680.00
2022-11-23T12:32:14.420Z,1596.00
2022-11-23T12:33:14.398Z,1504.00
2022-11-23T12:34:14.370Z,1612.00
2022-11-23T12:35:14.371Z,1860.00
2022-11-23T12:36:15.791Z,2064.00
2022-11-23T12:37:14.388Z,2636.00
2022-11-23T12:38:14.341Z,2496.00
2022-11-23T12:39:14.316Z,2656.00
2022-11-23T12:40:14.316Z,2408.00
2022-11-23T12:41:14.321Z,1828.00
2022-11-23T12:42:14.277Z,1864.00
2022-11-23T12:43:14.303Z,2108.00
2022-11-23T12:44:14.257Z,2296.00
2022-11-23T12:45:14.263Z,2628.00
2022-11-23T12:46:14.246Z,2392.00
2022-11-23T12:47:14.259Z,2764.00
2022-11-23T12:48:14.251Z,2800.00
2022-11-23T12:49:14.236Z,4320.00
2022-11-23T12:50:14.203Z,2596.00
2022-11-23T12:51:14.181Z,2636.00
2022-11-23T12:52:14.165Z,2656.00
2022-11-23T12:53:14.385Z,2852.00
2022-11-23T12:54:14.253Z,3308.00
2022-11-23T12:55:19.434Z,4008.00
2022-11-23T12:56:15.126Z,6584.00
2022-11-23T12:57:14.162Z,3356.00
2022-11-23T12:58:14.110Z,5912.00
2022-11-23T12:59:14.118Z,5552.00
2022-11-23T13:00:14.089Z,5936.00
2022-11-23T13:01:14.150Z,2824.00
2022-11-23T13:02:14.109Z,5040.00
2022-11-23T13:03:14.077Z,2100.00
2022-11-23T13:04:14.146Z,6436.00
2022-11-23T13:05:14.037Z,6120.00
2022-11-23T13:06:14.019Z,5780.00
2022-11-23T13:07:28.791Z,5616.00
2022-11-23T13:08:15.030Z,2040.00
2022-11-23T13:09:13.991Z,5964.00
2022-11-23T13:10:13.976Z,6308.00
2022-11-23T13:11:13.966Z,5540.00
2022-11-23T13:12:13.950Z,5304.00
2022-11-23T13:13:16.027Z,5020.00
2022-11-23T13:14:13.920Z,4952.00
2022-11-23T13:15:13.932Z,4944.00
2022-11-23T13:16:14.051Z,4904.00
2022-11-23T13:17:13.990Z,4828.00
2022-11-23T13:18:13.869Z,4920.00
2022-11-23T13:19:13.896Z,4944.00
2022-11-23T13:20:13.878Z,2408.00
2022-11-23T13:21:13.850Z,2120.00
2022-11-23T13:22:13.837Z,3076.00
2022-11-23T13:23:13.834Z,3496.00
2022-11-23T13:24:13.799Z,1832.00
2022-11-23T13:25:13.810Z,2140.00
2022-11-23T13:26:13.792Z,1944.00
2022-11-23T13:27:13.775Z,1904.00
2022-11-23T13:28:13.762Z,1792.00
2022-11-23T13:29:13.748Z,1880.00
2022-11-23T13:30:13.730Z,2072.00
2022-11-23T13:31:15.354Z,1764.00
2022-11-23T13:32:13.786Z,1900.00
2022-11-23T13:33:13.732Z,1992.00
2022-11-23T13:34:13.698Z,2084.00
2022-11-23T13:35:13.701Z,1896.00
2022-11-23T13:36:18.462Z,2004.00
2022-11-23T13:37:14.826Z,1684.00
2022-11-23T13:38:13.659Z,1596.00
2022-11-23T13:39:13.644Z,1852.00
2022-11-23T13:40:13.631Z,2740.00
2022-11-23T13:41:13.642Z,1652.00
2022-11-23T13:42:13.614Z,1800.00
2022-11-23T13:43:13.589Z,2780.00
2022-11-23T13:44:13.573Z,2884.00
2022-11-23T13:45:13.576Z,3036.00
2022-11-23T13:46:13.660Z,2384.00
2022-11-23T13:47:13.546Z,2572.00
2022-11-23T13:48:34.121Z,2844.00
2022-11-23T13:49:14.522Z,3096.00
2022-11-23T13:50:13.531Z,3168.00
2022-11-23T13:51:13.522Z,3064.00
2022-11-23T13:52:13.495Z,2104.00
2022-11-23T13:53:13.478Z,1312.00
2022-11-23T13:54:13.521Z,1880.00
2022-11-23T13:55:13.486Z,1928.00
2022-11-23T13:56:13.478Z,1756.00
2022-11-23T13:57:13.460Z,2252.00
2022-11-23T13:58:13.437Z,2160.00
2022-11-23T13:59:13.427Z,1948.00
2022-11-23T14:00:13.430Z,1080.00
2022-11-23T14:01:13.425Z,976.00
2022-11-23T14:02:13.437Z,996.00
2022-11-23T14:03:13.361Z,1100.00
2022-11-23T14:04:13.356Z,888.00
2022-11-23T14:05:13.351Z,1188.00
2022-11-23T14:06:13.358Z,1196.00
2022-11-23T14:07:13.503Z,964.00
2022-11-23T14:08:13.312Z,1004.00
2022-11-23T14:09:13.304Z,932.00
2022-11-23T14:10:13.295Z,904.00
2022-11-23T14:11:13.297Z,912.00
2022-11-23T14:12:13.272Z,884.00
2022-11-23T14:13:13.259Z,912.00
2022-11-23T14:14:13.248Z,928.00
2022-11-23T14:15:13.235Z,936.00
2022-11-23T14:16:13.279Z,936.00
2022-11-23T14:17:13.213Z,912.00
2022-11-23T14:18:13.200Z,896.00
2022-11-23T14:19:13.180Z,888.00
2022-11-23T14:20:13.188Z,852.00
2022-11-23T14:21:13.155Z,836.00
2022-11-23T14:22:13.139Z,836.00
2022-11-23T14:23:13.171Z,840.00
2022-11-23T14:24:15.870Z,860.00
2022-11-23T14:25:13.142Z,836.00
2022-11-23T14:26:13.094Z,824.00
2022-11-23T14:27:45.221Z,808.00
2022-11-23T14:28:14.071Z,788.00
2022-11-23T14:29:13.080Z,768.00
2022-11-23T14:30:13.053Z,748.00
2022-11-23T14:31:13.113Z,716.00
2022-11-23T14:32:13.158Z,692.00
2022-11-23T14:33:13.020Z,700.00
2022-11-23T14:34:13.015Z,708.00
2022-11-23T14:35:13.009Z,716.00
2022-11-23T14:36:13.015Z,704.00
2022-11-23T14:37:12.989Z,708.00
2022-11-23T14:38:12.980Z,704.00
2022-11-23T14:39:13.012Z,704.00
2022-11-23T14:40:12.951Z,696.00
2022-11-23T14:41:13.001Z,676.00
2022-11-23T14:42:12.947Z,652.00
2022-11-23T14:43:12.937Z,620.00
2022-11-23T14:44:12.903Z,604.00
2022-11-23T14:45:12.916Z,576.00
2022-11-23T14:46:12.957Z,548.00
2022-11-23T14:47:12.970Z,540.00
2022-11-23T14:48:12.857Z,508.00
2022-11-23T14:49:12.854Z,496.00
2022-11-23T14:50:12.858Z,512.00
2022-11-23T14:51:12.844Z,492.00
2022-11-23T14:52:12.831Z,472.00
2022-11-23T14:53:12.796Z,432.00
2022-11-23T14:54:12.793Z,396.00
2022-11-23T14:55:12.827Z,364.00
2022-11-23T14:56:12.764Z,336.00
2022-11-23T14:57:13.611Z,308.00
2022-11-23T14:58:12.759Z,276.00
2022-11-23T14:59:12.799Z,260.00
2022-11-23T15:00:12.808Z,248.00
2022-11-23T15:01:12.702Z,236.00
2022-11-23T15:02:12.697Z,216.00
2022-11-23T15:03:42.559Z,204.00
2022-11-23T15:04:13.782Z,188.00
2022-11-23T15:05:12.780Z,184.00
2022-11-23T15:06:12.672Z,172.00
2022-11-23T15:07:12.716Z,172.00
2022-11-23T15:08:12.636Z,176.00
2022-11-23T15:09:12.610Z,172.00
2022-11-23T15:10:12.613Z,168.00
2022-11-23T15:11:12.609Z,164.00
2022-11-23T15:12:12.600Z,156.00
2022-11-23T15:13:14.801Z,140.00
2022-11-23T15:14:12.561Z,128.00
2022-11-23T15:15:12.541Z,120.00
2022-11-23T15:16:12.620Z,112.00
2022-11-23T15:17:12.533Z,100.00
2022-11-23T15:18:12.514Z,96.00
2022-11-23T15:19:12.499Z,88.00
2022-11-23T15:20:12.494Z,80.00
2022-11-23T15:21:12.478Z,76.00
2022-11-23T15:22:12.456Z,68.00
2022-11-23T15:23:12.473Z,60.00
2022-11-23T15:24:12.447Z,56.00
2022-11-23T15:25:12.428Z,60.00
2022-11-23T15:26:28.590Z,56.00
2022-11-23T15:27:13.445Z,52.00
2022-11-23T15:28:12.428Z,44.00
2022-11-23T15:29:12.378Z,40.00
2022-11-23T15:30:12.372Z,36.00
2022-11-23T15:31:17.408Z,32.00
2022-11-23T15:32:30.097Z,28.00
2022-11-23T15:33:13.395Z,24.00
2022-11-23T15:34:12.326Z,20.00
2022-11-23T15:35:12.314Z,20.00
2022-11-23T15:36:12.317Z,16.00
2022-11-23T15:37:12.310Z,16.00
2022-11-23T15:38:12.308Z,12.00
2022-11-23T15:39:12.263Z,12.00
2022-11-23T15:40:12.258Z,12.00
2022-11-23T15:41:12.241Z,12.00
2022-11-23T15:42:12.233Z,8.00
2022-11-23T15:43:12.266Z,12.00
2022-11-23T15:44:12.232Z,8.00
2022-11-23T15:45:12.219Z,8.00
2022-11-23T15:46:12.314Z,8.00
2022-11-23T15:47:12.170Z,4.00
2022-11-23T15:48:12.168Z,4.00
2022-11-23T15:49:12.164Z,4.00
2022-11-23T15:50:12.157Z,4.00
2022-11-23T15:51:12.124Z,4.00
2022-11-23T15:52:12.118Z,4.00
2022-11-23T15:53:12.105Z,4.00
2022-11-23T15:54:12.098Z,0.00
2022-11-23T15:55:12.110Z,0.00
2022-11-23T15:56:12.081Z,0.00
2022-11-23T15:57:12.054Z,4.00
2022-11-23T15:58:12.063Z,4.00
2022-11-23T15:59:12.057Z,4.00
2022-11-23T16:00:12.043Z,4.00
2022-11-23T16:01:12.169Z,0.00
2022-11-23T16:02:12.032Z,0.00
2022-11-23T16:03:11.993Z,0.00
2022-11-23T16:04:12.003Z,0.00
2022-11-23T16:05:11.992Z,0.00
2022-11-23T16:06:11.972Z,0.00
2022-11-23T16:07:11.990Z,0.00
2022-11-23T16:08:11.934Z,0.00
2022-11-23T16:09:35.186Z,0.00
2022-11-23T16:10:12.940Z,0.00
2022-11-23T16:11:11.912Z,0.00
2022-11-23T16:12:11.910Z,0.00
2022-11-23T16:13:11.884Z,0.00
2022-11-23T16:14:11.867Z,0.00
2022-11-23T16:15:11.875Z,0.00
2022-11-23T16:16:12.075Z,0.00
2022-11-23T16:17:11.898Z,0.00
2022-11-23T16:18:11.838Z,0.00
2022-11-23T16:19:11.817Z,0.00
2022-11-23T16:20:11.813Z,0.00
2022-11-23T16:21:11.808Z,0.00
2022-11-23T16:22:11.777Z,0.00
2022-11-23T16:23:11.788Z,0.00
2022-11-23T16:24:11.753Z,0.00
2022-11-23T16:25:11.749Z,0.00
2022-11-23T16:26:11.744Z,0.00
2022-11-23T16:27:11.712Z,0.00
2022-11-23T16:28:11.706Z,0.00
2022-11-23T16:29:11.695Z,0.00
2022-11-23T16:30:11.702Z,0.00
2022-11-23T16:31:11.782Z,0.00
2022-11-23T16:32:11.662Z,0.00
2022-11-23T16:33:11.663Z,0.00
2022-11-23T16:34:11.644Z,0.00
2022-11-23T16:35:11.625Z,0.00
2022-11-23T16:36:11.635Z,0.00
2022-11-23T16:37:11.615Z,0.00
2022-11-23T16:38:11.616Z,0.00
2022-11-23T16:39:11.590Z,0.00
2022-11-23T16:40:11.575Z,0.00
2022-11-23T16:41:11.572Z,0.00
2022-11-23T16:42:11.572Z,0.00
2022-11-23T16:43:11.545Z,0.00
2022-11-23T16:44:11.524Z,0.00
2022-11-23T16:45:11.523Z,0.00
2022-11-23T16:46:11.577Z,0.00
2022-11-23T16:47:11.522Z,0.00
2022-11-23T16:48:11.494Z,0.00
2022-11-23T16:49:11.475Z,0.00
2022-11-23T16:50:11.466Z,0.00
2022-11-23T16:51:11.462Z,0.00
2022-11-23T16:52:11.431Z,0.00
2022-11-23T16:53:11.429Z,0.00
2022-11-23T16:54:14.216Z,0.00
2022-11-23T16:55:11.405Z,0.00
2022-11-23T16:56:11.388Z,0.00
2022-11-23T16:57:11.373Z,0.00
2022-11-23T16:58:11.391Z,0.00
2022-11-23T16:59:11.347Z,0.00
2022-11-23T17:00:11.340Z,0.00
2022-11-23T17:01:11.333Z,0.00
2022-11-23T17:02:11.405Z,0.00
2022-11-23T17:03:11.364Z,0.00
2022-11-23T17:04:11.362Z,0.00
2022-11-23T17:05:11.284Z,0.00
2022-11-23T17:06:11.272Z,0.00
2022-11-23T17:07:11.334Z,0.00
2022-11-23T17:08:11.255Z,0.00
2022-11-23T17:09:11.250Z,0.00
2022-11-23T17:10:11.245Z,0.00
2022-11-23T17:11:11.265Z,0.00
2022-11-23T17:12:11.217Z,0.00
2022-11-23T17:13:11.201Z,0.00
2022-11-23T17:14:16.325Z,0.00
2022-11-23T17:15:12.186Z,0.00
2022-11-23T17:16:11.213Z,0.00
2022-11-23T17:17:11.243Z,0.00
2022-11-23T17:18:11.171Z,0.00
2022-11-23T17:19:11.171Z,0.00
2022-11-23T17:20:11.113Z,0.00
2022-11-23T17:21:11.099Z,0.00
2022-11-23T17:22:11.092Z,0.00
2022-11-23T17:23:11.076Z,0.00
2022-11-23T17:24:11.080Z,0.00
2022-11-23T17:25:14.771Z,0.00
2022-11-23T17:26:11.058Z,0.00
2022-11-23T17:27:11.044Z,0.00
2022-11-23T17:28:11.024Z,0.00
2022-11-23T17:29:11.007Z,0.00
2022-11-23T17:30:11.082Z,0.00
2022-11-23T17:31:11.029Z,0.00
2022-11-23T17:32:10.977Z,0.00
2022-11-23T17:33:10.959Z,0.00
2022-11-23T17:34:10.954Z,0.00
2022-11-23T17:35:10.978Z,0.00
2022-11-23T17:36:10.931Z,0.00
2022-11-23T17:37:10.938Z,0.00
2022-11-23T17:38:10.923Z,0.00
2022-11-23T17:39:10.908Z,0.00
2022-11-23T17:40:10.900Z,0.00
2022-11-23T17:41:10.901Z,0.00
2022-11-23T17:42:10.864Z,0.00
2022-11-23T17:43:10.862Z,0.00
2022-11-23T17:44:10.853Z,0.00
2022-11-23T17:45:10.829Z,0.00
2022-11-23T17:46:10.918Z,0.00
2022-11-23T17:47:10.813Z,0.00
2022-11-23T17:48:10.808Z,0.00
2022-11-23T17:49:10.784Z,0.00
2022-11-23T17:50:10.802Z,0.00
2022-11-23T17:51:10.808Z,0.00
2022-11-23T17:52:10.763Z,0.00
2022-11-23T17:53:10.743Z,0.00
2022-11-23T17:54:10.727Z,0.00
2022-11-23T17:55:10.728Z,0.00
2022-11-23T17:56:10.715Z,0.00
2022-11-23T17:57:10.757Z,0.00
2022-11-23T17:58:10.693Z,0.00
2022-11-23T17:59:10.669Z,0.00
2022-11-23T18:00:10.664Z,0.00
2022-11-23T18:01:10.706Z,0.00
2022-11-23T18:02:10.651Z,0.00
2022-11-23T18:03:10.723Z,0.00
2022-11-23T18:04:10.626Z,0.00
2022-11-23T18:05:10.621Z,0.00
2022-11-23T18:06:10.603Z,0.00
2022-11-23T18:07:10.653Z,0.00
2022-11-23T18:08:10.594Z,0.00
2022-11-23T18:09:10.564Z,0.00
2022-11-23T18:10:10.560Z,0.00
2022-11-23T18:11:10.539Z,0.00
2022-11-23T18:12:10.540Z,0.00
2022-11-23T18:13:10.507Z,0.00
2022-11-23T18:14:10.530Z,0.00
2022-11-23T18:15:10.497Z,0.00
2022-11-23T18:16:10.583Z,0.00
2022-11-23T18:17:10.475Z,0.00
2022-11-23T18:18:10.500Z,0.00
2022-11-23T18:19:10.452Z,0.00
2022-11-23T18:20:10.459Z,0.00
2022-11-23T18:21:10.419Z,0.00
2022-11-23T18:22:10.416Z,0.00
2022-11-23T18:23:10.461Z,0.00
2022-11-23T18:24:10.422Z,0.00
2022-11-23T18:25:10.386Z,0.00
2022-11-23T18:26:10.363Z,0.00
2022-11-23T18:27:10.361Z,0.00
2022-11-23T18:28:10.351Z,0.00
2022-11-23T18:29:15.580Z,0.00
2022-11-23T18:30:11.333Z,0.00
2022-11-23T18:31:10.419Z,0.00
2022-11-23T18:32:10.295Z,0.00
2022-11-23T18:33:10.313Z,0.00
2022-11-23T18:34:10.282Z,0.00
2022-11-23T18:35:10.289Z,0.00
2022-11-23T18:36:10.266Z,0.00
2022-11-23T18:37:10.233Z,0.00
2022-11-23T18:38:10.225Z,0.00
2022-11-23T18:39:10.231Z,0.00
2022-11-23T18:40:10.206Z,0.00
2022-11-23T18:41:10.217Z,0.00
2022-11-23T18:42:10.195Z,0.00
2022-11-23T18:43:10.694Z,0.00
2022-11-23T18:44:10.157Z,0.00
2022-11-23T18:45:10.165Z,0.00
2022-11-23T18:46:10.312Z,0.00
2022-11-23T18:47:10.118Z,0.00
2022-11-23T18:48:10.123Z,0.00
2022-11-23T18:49:10.094Z,0.00
2022-11-23T18:50:10.745Z,0.00
2022-11-23T18:51:10.102Z,0.00
2022-11-23T18:52:10.080Z,0.00
2022-11-23T18:53:10.061Z,0.00
2022-11-23T18:54:10.048Z,0.00
2022-11-23T18:55:10.067Z,0.00
2022-11-23T18:56:10.050Z,0.00
2022-11-23T18:57:10.021Z,0.00
2022-11-23T18:58:10.016Z,0.00
2022-11-23T18:59:19.166Z,0.00
2022-11-23T19:00:10.979Z,0.00
2022-11-23T19:01:12.392Z,0.00
2022-11-23T19:02:10.017Z,0.00
2022-11-23T19:03:09.955Z,0.00
2022-11-23T19:04:10.101Z,0.00
2022-11-23T19:05:09.913Z,0.00
2022-11-23T19:06:09.922Z,0.00
2022-11-23T19:07:10.018Z,0.00
2022-11-23T19:08:09.896Z,0.00
2022-11-23T19:09:09.867Z,0.00
2022-11-23T19:10:09.876Z,0.00
2022-11-23T19:11:09.871Z,0.00
2022-11-23T19:12:09.864Z,0.00
2022-11-23T19:13:09.837Z,0.00
2022-11-23T19:14:09.830Z,0.00
2022-11-23T19:15:09.815Z,0.00
2022-11-23T19:16:09.892Z,0.00
2022-11-23T19:17:09.790Z,0.00
2022-11-23T19:18:09.987Z,0.00
2022-11-23T19:19:09.770Z,0.00
2022-11-23T19:20:09.774Z,0.00
2022-11-23T19:21:09.748Z,0.00
2022-11-23T19:22:09.755Z,0.00
2022-11-23T19:23:09.724Z,0.00
2022-11-23T19:24:09.715Z,0.00
2022-11-23T19:25:09.685Z,0.00
2022-11-23T19:26:09.697Z,0.00
2022-11-23T19:27:09.749Z,0.00
2022-11-23T19:28:09.670Z,0.00
2022-11-23T19:29:09.640Z,0.00
2022-11-23T19:30:09.639Z,0.00
2022-11-23T19:31:09.670Z,0.00
2022-11-23T19:32:09.640Z,0.00
2022-11-23T19:33:09.608Z,0.00
2022-11-23T19:34:09.605Z,0.00
2022-11-23T19:35:09.572Z,0.00
2022-11-23T19:36:09.569Z,0.00
2022-11-23T19:37:09.573Z,0.00
2022-11-23T19:38:09.544Z,0.00
2022-11-23T19:39:09.528Z,0.00
2022-11-23T19:40:09.537Z,0.00
2022-11-23T19:41:09.506Z,0.00
2022-11-23T19:42:09.508Z,0.00
2022-11-23T19:43:09.514Z,0.00
2022-11-23T19:44:09.481Z,0.00
2022-11-23T19:45:09.476Z,0.00
2022-11-23T19:46:09.543Z,0.00
2022-11-23T19:47:15.390Z,0.00
2022-11-23T19:48:10.425Z,0.00
2022-11-23T19:49:09.435Z,0.00
2022-11-23T19:50:09.414Z,0.00
2022-11-23T19:51:09.406Z,0.00
2022-11-23T19:52:09.377Z,0.00
2022-11-23T19:53:12.742Z,0.00
2022-11-23T19:54:09.356Z,0.00
2022-11-23T19:55:09.364Z,0.00
2022-11-23T19:56:09.347Z,0.00
2022-11-23T19:57:09.351Z,0.00
2022-11-23T19:58:09.324Z,0.00
2022-11-23T19:59:09.348Z,0.00
2022-11-23T20:00:09.307Z,0.00
2022-11-23T20:01:09.297Z,0.00